createdAt,value
2023-04-18T00:01:14.850Z,102559.50
2023-04-18T00:03:38.505Z,102559.25
2023-04-18T00:06:00.369Z,102564.25
2023-04-18T00:08:22.140Z,102560.44
2023-04-18T00:10:43.791Z,102559.06
2023-04-18T00:13:05.651Z,102551.09
2023-04-18T00:15:29.180Z,102549.50
2023-04-18T00:17:50.977Z,102548.41
2023-04-18T00:20:13.006Z,102557.81
2023-04-18T00:22:34.654Z,102545.97
2023-04-18T00:24:56.326Z,102556.97
2023-04-18T00:27:19.149Z,102551.22
2023-04-18T00:29:40.875Z,102546.00
2023-04-18T00:32:02.529Z,102544.38
2023-04-18T00:34:25.609Z,102548.25
2023-04-18T00:36:48.622Z,102544.66
2023-04-18T00:39:10.744Z,102551.03
2023-04-18T00:41:32.534Z,102543.06
2023-04-18T00:43:55.153Z,102550.81
2023-04-18T00:46:16.810Z,102543.13
2023-04-18T00:48:39.606Z,102545.63
2023-04-18T00:51:01.779Z,102541.25
2023-04-18T00:53:24.113Z,102541.59
2023-04-18T00:55:46.021Z,102541.31
2023-04-18T00:58:08.132Z,102537.22
2023-04-18T01:00:30.056Z,102537.78
2023-04-18T01:02:54.058Z,102545.75
2023-04-18T01:05:16.517Z,102546.34
2023-04-18T01:07:41.676Z,102546.91
2023-04-18T01:10:04.335Z,102550.19
2023-04-18T01:12:26.023Z,102548.56
2023-04-18T01:14:49.464Z,102548.59
2023-04-18T01:17:11.169Z,102541.72
2023-04-18T01:19:32.942Z,102549.13
2023-04-18T01:21:54.599Z,102540.34
2023-04-18T01:24:17.713Z,102545.84
2023-04-18T01:26:40.333Z,102544.19
2023-04-18T01:29:02.078Z,102543.63
2023-04-18T01:31:24.906Z,102538.69
2023-04-18T01:33:46.538Z,102545.00
2023-04-18T01:36:10.916Z,102539.25
2023-04-18T01:38:33.152Z,102532.66
2023-04-18T01:40:55.791Z,102530.47
2023-04-18T01:43:17.490Z,102537.06
2023-04-18T01:45:39.129Z,102523.34
2023-04-18T01:48:00.925Z,102528.28
2023-04-18T01:50:22.881Z,102528.81
2023-04-18T01:52:44.582Z,102527.44
2023-04-18T01:55:06.690Z,102528.53
2023-04-18T01:57:28.914Z,102533.75
2023-04-18T01:59:50.625Z,102529.34
2023-04-18T02:02:13.403Z,102526.34
2023-04-18T02:04:35.803Z,102515.63
2023-04-18T02:06:57.399Z,102513.94
2023-04-18T02:09:19.157Z,102519.72
2023-04-18T02:11:40.752Z,102512.31
2023-04-18T02:14:02.493Z,102524.34
2023-04-18T02:16:24.191Z,102520.22
2023-04-18T02:18:46.683Z,102526.00
2023-04-18T02:21:11.105Z,102513.38
2023-04-18T02:23:32.792Z,102514.19
2023-04-18T02:25:54.550Z,102512.81
2023-04-18T02:28:16.269Z,102507.59
2023-04-18T02:30:38.015Z,102514.44
2023-04-18T02:32:59.691Z,102517.44
2023-04-18T02:35:21.600Z,102507.28
2023-04-18T02:37:43.535Z,102511.66
2023-04-18T02:40:08.770Z,102522.09
2023-04-18T02:42:31.507Z,102511.91
2023-04-18T02:44:53.193Z,102517.13
2023-04-18T02:47:14.908Z,102512.19
2023-04-18T02:49:39.738Z,102509.41
2023-04-18T02:52:01.593Z,102520.94
2023-04-18T02:54:24.666Z,102517.31
2023-04-18T02:56:54.979Z,102519.81
2023-04-18T02:59:48.566Z,102515.69
2023-04-18T03:02:29.066Z,102512.13
2023-04-18T03:04:56.600Z,102511.53
2023-04-18T03:07:18.769Z,102512.34
2023-04-18T03:09:40.587Z,102511.22
2023-04-18T03:12:11.450Z,102514.78
2023-04-18T03:14:33.892Z,102519.72
2023-04-18T03:16:55.780Z,102518.03
2023-04-18T03:19:21.862Z,102509.81
2023-04-18T03:21:45.071Z,102509.81
2023-04-18T03:24:08.116Z,102518.03
2023-04-18T03:26:30.851Z,102519.66
2023-04-18T03:28:52.545Z,102516.38
2023-04-18T03:31:14.351Z,102519.34
2023-04-18T03:33:39.197Z,102525.63
2023-04-18T03:36:05.892Z,102530.25
2023-04-18T03:38:27.575Z,102523.66
2023-04-18T03:40:49.436Z,102531.03
2023-04-18T03:43:20.972Z,102529.44
2023-04-18T03:45:44.109Z,102525.28
2023-04-18T03:48:07.225Z,102525.56
2023-04-18T03:50:33.360Z,102525.56
2023-04-18T03:52:56.294Z,102525.78
2023-04-18T03:55:19.665Z,102522.47
2023-04-18T03:57:41.593Z,102521.38
2023-04-18T04:00:08.760Z,102530.38
2023-04-18T04:02:37.365Z,102529.81
2023-04-18T04:04:59.162Z,102521.06
2023-04-18T04:07:21.486Z,102517.50
2023-04-18T04:09:43.154Z,102519.44
2023-04-18T04:12:05.347Z,102527.31
2023-04-18T04:14:27.765Z,102531.38
2023-04-18T04:16:49.500Z,102530.56
2023-04-18T04:19:12.249Z,102534.13
2023-04-18T04:21:40.708Z,102529.41
2023-04-18T04:24:06.990Z,102528.06
2023-04-18T04:26:34.475Z,102531.59
2023-04-18T04:29:05.118Z,102531.53
2023-04-18T04:31:28.998Z,102522.53
2023-04-18T04:33:51.650Z,102525.25
2023-04-18T04:36:18.796Z,102532.06
2023-04-18T04:38:44.424Z,102528.00
2023-04-18T04:41:07.700Z,102532.66
2023-04-18T04:43:29.545Z,102530.47
2023-04-18T04:45:53.112Z,102541.09
2023-04-18T04:48:19.990Z,102533.47
2023-04-18T04:50:42.045Z,102543.84
2023-04-18T04:53:06.819Z,102542.50
2023-04-18T04:55:28.610Z,102542.00
2023-04-18T04:57:50.490Z,102537.06
2023-04-18T05:00:35.311Z,102552.66
2023-04-18T05:02:57.551Z,102541.94
2023-04-18T05:05:21.182Z,102540.91
2023-04-18T05:07:42.940Z,102552.97
2023-04-18T05:10:05.583Z,102550.25
2023-04-18T05:12:27.230Z,102551.06
2023-04-18T05:14:48.886Z,102547.22
2023-04-18T05:17:10.614Z,102557.91
2023-04-18T05:19:32.290Z,102558.22
2023-04-18T05:21:53.960Z,102558.25
2023-04-18T05:24:15.827Z,102553.34
2023-04-18T05:26:38.283Z,102549.56
2023-04-18T05:29:00.014Z,102552.03
2023-04-18T05:31:22.935Z,102557.03
2023-04-18T05:33:44.631Z,102558.44
2023-04-18T05:36:07.614Z,102551.09
2023-04-18T05:38:29.442Z,102563.44
2023-04-18T05:40:51.280Z,102555.56
2023-04-18T05:43:13.016Z,102573.41
2023-04-18T05:45:35.027Z,102568.53
2023-04-18T05:47:57.207Z,102576.22
2023-04-18T05:50:18.827Z,102561.47
2023-04-18T05:52:40.711Z,102574.38
2023-04-18T05:55:02.343Z,102565.59
2023-04-18T05:57:24.113Z,102582.31
2023-04-18T05:59:45.818Z,102581.53
2023-04-18T06:02:13.250Z,102587.88
2023-04-18T06:04:35.428Z,102582.13
2023-04-18T06:06:57.245Z,102581.88
2023-04-18T06:09:18.952Z,102587.63
2023-04-18T06:11:40.934Z,102581.66
2023-04-18T06:14:03.580Z,102574.81
2023-04-18T06:16:25.402Z,102580.88
2023-04-18T06:18:47.374Z,102578.38
2023-04-18T06:21:09.128Z,102590.22
2023-04-18T06:23:31.390Z,102591.59
2023-04-18T06:25:53.386Z,102584.47
2023-04-18T06:28:15.270Z,102589.13
2023-04-18T06:30:37.331Z,102594.06
2023-04-18T06:32:59.403Z,102587.19
2023-04-18T06:35:21.279Z,102587.50
2023-04-18T06:37:44.852Z,102595.72
2023-04-18T06:40:07.778Z,102594.63
2023-04-18T06:42:29.531Z,102603.16
2023-04-18T06:44:51.723Z,102604.56
2023-04-18T06:47:14.061Z,102604.00
2023-04-18T06:49:35.992Z,102607.03
2023-04-18T06:51:57.872Z,102604.56
2023-04-18T06:54:20.087Z,102598.53
2023-04-18T06:56:41.797Z,102598.00
2023-04-18T06:59:04.097Z,102610.63
2023-04-18T07:01:26.219Z,102608.16
2023-04-18T07:03:48.517Z,102613.66
2023-04-18T07:06:11.181Z,102612.03
2023-04-18T07:08:34.851Z,102610.13
2023-04-18T07:10:56.768Z,102607.34
2023-04-18T07:13:18.504Z,102612.88
2023-04-18T07:15:41.860Z,102606.50
2023-04-18T07:18:03.855Z,102613.34
2023-04-18T07:20:25.630Z,102612.78
2023-04-18T07:22:48.187Z,102613.59
2023-04-18T07:25:10.105Z,102602.53
2023-04-18T07:27:36.538Z,102609.94
2023-04-18T07:29:58.757Z,102615.94
2023-04-18T07:32:20.576Z,102615.34
2023-04-18T07:34:42.775Z,102622.50
2023-04-18T07:37:04.972Z,102618.34
2023-04-18T07:39:27.145Z,102616.97
2023-04-18T07:41:48.969Z,102618.34
2023-04-18T07:44:10.843Z,102627.44
2023-04-18T07:46:34.160Z,102630.16
2023-04-18T07:48:56.429Z,102630.66
2023-04-18T07:51:18.554Z,102626.25
2023-04-18T07:53:44.030Z,102619.31
2023-04-18T07:56:06.131Z,102625.84
2023-04-18T07:58:28.401Z,102627.41
2023-04-18T08:00:50.951Z,102630.94
2023-04-18T08:03:13.767Z,102629.19
2023-04-18T08:05:36.223Z,102637.97
2023-04-18T08:07:58.210Z,102625.81
2023-04-18T08:10:22.508Z,102641.44
2023-04-18T08:12:45.849Z,102625.56
2023-04-18T08:15:09.303Z,102622.16
2023-04-18T08:17:31.682Z,102625.63
2023-04-18T08:19:54.213Z,102631.94
2023-04-18T08:22:16.483Z,102633.03
2023-04-18T08:24:39.618Z,102634.03
2023-04-18T08:27:02.708Z,102630.34
2023-04-18T08:29:24.657Z,102633.28
2023-04-18T08:31:47.441Z,102638.63
2023-04-18T08:34:09.481Z,102634.19
2023-04-18T08:36:31.704Z,102629.53
2023-04-18T08:38:53.731Z,102628.75
2023-04-18T08:41:25.241Z,102632.56
2023-04-18T08:43:51.123Z,102637.69
2023-04-18T08:46:13.273Z,102629.94
2023-04-18T08:48:35.342Z,102631.78
2023-04-18T08:50:59.311Z,102628.47
2023-04-18T08:53:21.141Z,102624.00
2023-04-18T08:55:43.791Z,102616.63
2023-04-18T08:58:07.047Z,102629.00
2023-04-18T09:00:29.370Z,102627.56
2023-04-18T09:02:57.924Z,102627.41
2023-04-18T09:05:21.116Z,102624.03
2023-04-18T09:07:43.294Z,102628.78
2023-04-18T09:10:05.750Z,102627.63
2023-04-18T09:12:29.775Z,102627.84
2023-04-18T09:14:57.608Z,102622.41
2023-04-18T09:17:46.054Z,102628.88
2023-04-18T09:20:11.027Z,102626.25
2023-04-18T09:22:51.337Z,102619.31
2023-04-18T09:25:26.220Z,102624.66
2023-04-18T09:27:48.062Z,102639.09
2023-04-18T09:30:11.172Z,102631.78
2023-04-18T09:32:33.343Z,102645.72
2023-04-18T09:35:01.375Z,102641.41
2023-04-18T09:37:26.401Z,102649.81
2023-04-18T09:39:49.982Z,102639.50
2023-04-18T09:42:12.780Z,102635.81
2023-04-18T09:44:35.013Z,102632.22
2023-04-18T09:46:57.002Z,102630.22
2023-04-18T09:49:19.050Z,102635.72
2023-04-18T09:51:43.201Z,102636.03
2023-04-18T09:54:06.552Z,102628.13
2023-04-18T09:56:32.692Z,102629.88
2023-04-18T09:59:13.211Z,102630.94
2023-04-18T10:01:36.677Z,102628.03
2023-04-18T10:04:07.932Z,102648.69
2023-04-18T10:06:34.105Z,102629.00
2023-04-18T10:08:56.769Z,102630.63
2023-04-18T10:11:20.222Z,102621.03
2023-04-18T10:13:47.908Z,102619.56
2023-04-18T10:16:11.148Z,102614.16
2023-04-18T10:18:33.114Z,102612.94
2023-04-18T10:21:05.586Z,102611.22
2023-04-18T10:23:39.281Z,102618.28
2023-04-18T10:26:03.363Z,102619.31
2023-04-18T10:28:26.724Z,102614.16
2023-04-18T10:30:52.382Z,102614.16
2023-04-18T10:33:31.846Z,102620.13
2023-04-18T10:35:57.991Z,102618.97
2023-04-18T10:38:24.452Z,102616.84
2023-04-18T10:40:46.341Z,102624.31
2023-04-18T10:43:08.222Z,102628.53
2023-04-18T10:45:32.546Z,102614.47
2023-04-18T10:48:31.188Z,102615.09
2023-04-18T10:51:20.652Z,102618.63
2023-04-18T10:53:56.992Z,102619.88
2023-04-18T10:56:19.084Z,102619.16
2023-04-18T10:58:43.709Z,102619.63
2023-04-18T11:01:07.181Z,102617.72
2023-04-18T11:03:36.050Z,102618.44
2023-04-18T11:06:04.359Z,102618.22
2023-04-18T11:08:26.427Z,102620.56
2023-04-18T11:10:57.996Z,102625.59
2023-04-18T11:13:19.870Z,102623.72
2023-04-18T11:15:41.735Z,102619.22
2023-04-18T11:18:04.995Z,102609.94
2023-04-18T11:20:28.409Z,102613.53
2023-04-18T11:22:56.312Z,102614.03
2023-04-18T11:25:22.249Z,102609.84
2023-04-18T11:27:46.508Z,102611.09
2023-04-18T11:30:09.137Z,102603.31
2023-04-18T11:32:31.097Z,102608.59
2023-04-18T11:34:54.938Z,102603.88
2023-04-18T11:37:16.818Z,102605.56
2023-04-18T11:39:43.836Z,102609.09
2023-04-18T11:42:05.806Z,102609.00
2023-04-18T11:44:27.549Z,102615.94
2023-04-18T11:46:51.892Z,102612.03
2023-04-18T11:49:32.834Z,102619.06
2023-04-18T11:51:55.630Z,102605.75
2023-04-18T11:54:39.460Z,102605.56
2023-04-18T11:57:02.447Z,102601.03
2023-04-18T11:59:24.292Z,102614.09
2023-04-18T12:01:46.300Z,102599.41
2023-04-18T12:04:09.086Z,102603.50
2023-04-18T12:06:51.778Z,102616.34
2023-04-18T12:09:15.981Z,102598.38
2023-04-18T12:11:41.552Z,102595.81
2023-04-18T12:14:04.190Z,102598.00
2023-04-18T12:16:28.305Z,102602.50
2023-04-18T12:18:51.057Z,102596.97
2023-04-18T12:21:13.864Z,102601.88
2023-04-18T12:23:42.436Z,102601.88
2023-04-18T12:26:14.554Z,102595.03
2023-04-18T12:28:36.430Z,102590.63
2023-04-18T12:30:58.899Z,102598.06
2023-04-18T12:33:20.850Z,102594.72
2023-04-18T12:35:43.027Z,102601.75
2023-04-18T12:38:05.132Z,102596.50
2023-04-18T12:40:28.766Z,102587.97
2023-04-18T12:42:51.537Z,102594.28
2023-04-18T12:45:16.453Z,102596.41
2023-04-18T12:47:40.878Z,102597.03
2023-04-18T12:50:03.160Z,102593.16
2023-04-18T12:52:24.931Z,102601.13
2023-04-18T12:54:46.663Z,102585.97
2023-04-18T12:57:08.384Z,102595.03
2023-04-18T12:59:30.752Z,102598.91
2023-04-18T13:01:52.631Z,102595.66
2023-04-18T13:04:14.668Z,102598.72
2023-04-18T13:06:37.778Z,102600.34
2023-04-18T13:08:59.560Z,102602.19
2023-04-18T13:11:22.539Z,102608.19
2023-04-18T13:13:44.589Z,102590.25
2023-04-18T13:16:06.718Z,102595.97
2023-04-18T13:18:28.406Z,102591.13
2023-04-18T13:20:50.400Z,102594.09
2023-04-18T13:23:12.398Z,102594.16
2023-04-18T13:25:34.137Z,102592.78
2023-04-18T13:27:57.649Z,102583.19
2023-04-18T13:30:19.527Z,102587.50
2023-04-18T13:32:42.005Z,102590.94
2023-04-18T13:35:08.270Z,102591.16
2023-04-18T13:37:30.083Z,102590.00
2023-04-18T13:39:52.242Z,102595.03
2023-04-18T13:42:15.966Z,102588.50
2023-04-18T13:44:38.561Z,102589.50
2023-04-18T13:47:01.590Z,102583.72
2023-04-18T13:49:23.553Z,102583.06
2023-04-18T13:51:46.269Z,102587.03
2023-04-18T13:54:08.196Z,102582.53
2023-04-18T13:56:30.082Z,102579.41
2023-04-18T13:58:52.283Z,102585.66
2023-04-18T14:01:16.607Z,102582.25
2023-04-18T14:03:40.644Z,102572.03
2023-04-18T14:06:04.711Z,102575.97
2023-04-18T14:08:26.482Z,102574.44
2023-04-18T14:10:48.583Z,102574.16
2023-04-18T14:13:10.718Z,102566.81
2023-04-18T14:15:33.288Z,102569.94
2023-04-18T14:17:55.454Z,102549.69
2023-04-18T14:20:20.472Z,102554.78
2023-04-18T14:22:42.838Z,102558.06
2023-04-18T14:25:05.470Z,102552.00
2023-04-18T14:27:27.810Z,102556.75
2023-04-18T14:29:49.986Z,102555.91
2023-04-18T14:32:12.364Z,102553.28
2023-04-18T14:34:35.860Z,102558.00
2023-04-18T14:36:58.696Z,102553.41
2023-04-18T14:39:21.669Z,102554.88
2023-04-18T14:41:43.645Z,102553.56
2023-04-18T14:44:06.580Z,102550.09
2023-04-18T14:46:29.381Z,102553.31
2023-04-18T14:48:53.055Z,102552.09
2023-04-18T14:51:16.841Z,102551.44
2023-04-18T14:53:39.221Z,102542.34
2023-04-18T14:56:01.135Z,102548.81
2023-04-18T14:58:22.936Z,102547.84
2023-04-18T15:00:44.929Z,102546.06
2023-04-18T15:03:09.719Z,102538.78
2023-04-18T15:05:34.952Z,102537.91
2023-04-18T15:07:58.272Z,102537.09
2023-04-18T15:10:22.353Z,102540.84
2023-04-18T15:12:44.164Z,102544.91
2023-04-18T15:15:06.918Z,102538.69
2023-04-18T15:17:30.323Z,102526.91
2023-04-18T15:19:52.521Z,102536.06
2023-04-18T15:22:14.295Z,102525.09
2023-04-18T15:24:37.296Z,102537.19
2023-04-18T15:26:59.305Z,102526.72
2023-04-18T15:29:21.356Z,102525.56
2023-04-18T15:31:44.564Z,102526.19
2023-04-18T15:34:08.139Z,102524.88
2023-04-18T15:36:31.861Z,102522.72
2023-04-18T15:38:53.826Z,102524.75
2023-04-18T15:41:15.728Z,102514.75
2023-04-18T15:43:37.530Z,102509.66
2023-04-18T15:45:59.495Z,102513.34
2023-04-18T15:48:21.713Z,102512.00
2023-04-18T15:50:43.484Z,102511.03
2023-04-18T15:53:05.658Z,102517.38
2023-04-18T15:55:27.898Z,102519.88
2023-04-18T15:57:49.799Z,102515.72
2023-04-18T16:00:21.723Z,102512.03
2023-04-18T16:02:45.257Z,102510.91
2023-04-18T16:05:08.648Z,102521.91
2023-04-18T16:07:30.612Z,102516.16
2023-04-18T16:09:52.712Z,102521.22
2023-04-18T16:12:14.831Z,102517.41
2023-04-18T16:14:36.677Z,102520.91
2023-04-18T16:16:59.247Z,102517.00
2023-04-18T16:19:21.634Z,102527.66
2023-04-18T16:21:44.161Z,102521.09
2023-04-18T16:24:06.843Z,102533.06
2023-04-18T16:26:28.944Z,102522.22
2023-04-18T16:28:51.264Z,102528.25
2023-04-18T16:31:14.250Z,102524.47
2023-04-18T16:33:36.178Z,102535.38
2023-04-18T16:36:02.506Z,102531.94
2023-04-18T16:38:27.196Z,102528.53
2023-04-18T16:40:49.221Z,102527.72
2023-04-18T16:43:11.808Z,102525.59
2023-04-18T16:45:33.757Z,102526.94
2023-04-18T16:47:57.254Z,102519.88
2023-04-18T16:50:19.638Z,102518.75
2023-04-18T16:52:41.620Z,102512.06
2023-04-18T16:55:04.583Z,102526.47
2023-04-18T16:57:26.890Z,102518.63
2023-04-18T16:59:49.114Z,102512.56
2023-04-18T17:02:12.066Z,102520.06
2023-04-18T17:04:34.161Z,102509.47
2023-04-18T17:06:56.623Z,102512.91
2023-04-18T17:09:19.923Z,102518.94
2023-04-18T17:11:42.591Z,102520.94
2023-04-18T17:14:04.713Z,102518.47
2023-04-18T17:16:26.765Z,102509.19
2023-04-18T17:18:48.587Z,102511.28
2023-04-18T17:21:13.037Z,102507.69
2023-04-18T17:23:34.807Z,102513.38
2023-04-18T17:25:56.534Z,102506.69
2023-04-18T17:28:19.567Z,102503.41
2023-04-18T17:30:42.158Z,102505.69
2023-04-18T17:33:04.322Z,102508.16
2023-04-18T17:35:26.321Z,102504.53
2023-04-18T17:37:50.263Z,102507.31
2023-04-18T17:40:12.430Z,102505.03
2023-04-18T17:42:34.419Z,102509.13
2023-04-18T17:44:56.182Z,102506.84
2023-04-18T17:47:18.415Z,102507.66
2023-04-18T17:49:40.208Z,102512.06
2023-04-18T17:52:03.225Z,102506.34
2023-04-18T17:54:25.232Z,102511.25
2023-04-18T17:56:47.268Z,102510.59
2023-04-18T17:59:10.124Z,102520.75
2023-04-18T18:01:32.922Z,102526.31
2023-04-18T18:03:54.947Z,102530.53
2023-04-18T18:06:16.843Z,102532.66
2023-04-18T18:08:39.211Z,102529.56
2023-04-18T18:11:01.697Z,102526.59
2023-04-18T18:13:23.338Z,102524.13
2023-04-18T18:15:45.631Z,102527.53
2023-04-18T18:18:23.151Z,102529.00
2023-04-18T18:20:45.621Z,102528.34
2023-04-18T18:23:07.671Z,102525.50
2023-04-18T18:25:29.906Z,102524.00
2023-04-18T18:27:52.350Z,102518.72
2023-04-18T18:30:15.825Z,102525.91
2023-04-18T18:32:37.889Z,102538.66
2023-04-18T18:34:59.962Z,102533.31
2023-04-18T18:37:23.286Z,102524.88
2023-04-18T18:39:45.044Z,102533.03
2023-04-18T18:42:08.474Z,102535.03
2023-04-18T18:44:30.640Z,102535.25
2023-04-18T18:46:52.471Z,102543.75
2023-04-18T18:49:14.982Z,102538.63
2023-04-18T18:51:37.301Z,102539.38
2023-04-18T18:53:59.038Z,102546.41
2023-04-18T18:56:21.220Z,102544.69
2023-04-18T18:58:43.921Z,102552.28
2023-04-18T19:01:06.651Z,102553.50
2023-04-18T19:03:28.599Z,102553.00
2023-04-18T19:05:51.859Z,102552.06
2023-04-18T19:08:14.285Z,102557.16
2023-04-18T19:10:36.324Z,102563.31
2023-04-18T19:12:57.996Z,102558.69
2023-04-18T19:15:19.768Z,102563.00
2023-04-18T19:17:41.690Z,102573.00
2023-04-18T19:20:04.094Z,102562.84
2023-04-18T19:22:25.988Z,102570.41
2023-04-18T19:24:47.978Z,102564.19
2023-04-18T19:27:09.905Z,102567.84
2023-04-18T19:29:32.849Z,102566.50
2023-04-18T19:31:54.827Z,102565.47
2023-04-18T19:34:18.822Z,102572.41
2023-04-18T19:36:40.504Z,102569.34
2023-04-18T19:39:02.125Z,102577.94
2023-04-18T19:41:25.954Z,102577.13
2023-04-18T19:43:48.441Z,102585.69
2023-04-18T19:46:10.564Z,102589.06
2023-04-18T19:48:32.635Z,102592.13
2023-04-18T19:50:56.859Z,102593.53
2023-04-18T19:53:20.372Z,102590.94
2023-04-18T19:55:44.576Z,102590.72
2023-04-18T19:58:06.466Z,102596.59
2023-04-18T20:00:28.428Z,102594.13
2023-04-18T20:02:50.441Z,102592.25
2023-04-18T20:05:12.967Z,102588.75
2023-04-18T20:07:36.038Z,102599.50
2023-04-18T20:09:57.708Z,102593.16
2023-04-18T20:12:19.593Z,102596.75
2023-04-18T20:14:41.363Z,102593.06
2023-04-18T20:17:03.093Z,102602.69
2023-04-18T20:19:25.710Z,102601.59
2023-04-18T20:21:47.444Z,102592.25
2023-04-18T20:24:09.669Z,102591.22
2023-04-18T20:26:31.460Z,102596.50
2023-04-18T20:28:53.502Z,102594.63
2023-04-18T20:31:15.617Z,102600.22
2023-04-18T20:33:38.084Z,102596.94
2023-04-18T20:35:59.988Z,102603.06
2023-04-18T20:38:26.220Z,102599.25
2023-04-18T20:40:51.501Z,102604.75
2023-04-18T20:43:17.369Z,102607.00
2023-04-18T20:45:42.820Z,102609.53
2023-04-18T20:48:04.952Z,102617.53
2023-04-18T20:50:27.767Z,102610.97
2023-04-18T20:52:50.362Z,102614.00
2023-04-18T20:55:12.567Z,102613.78
2023-04-18T20:57:34.373Z,102611.31
2023-04-18T20:59:58.584Z,102617.97
2023-04-18T21:02:20.305Z,102614.94
2023-04-18T21:04:42.158Z,102621.06
2023-04-18T21:07:04.021Z,102618.91
2023-04-18T21:09:26.077Z,102627.47
2023-04-18T21:11:47.822Z,102616.50
2023-04-18T21:14:10.801Z,102627.81
2023-04-18T21:16:32.775Z,102627.81
2023-04-18T21:18:55.175Z,102627.59
2023-04-18T21:21:17.018Z,102630.63
2023-04-18T21:23:43.546Z,102642.25
2023-04-18T21:26:05.472Z,102632.63
2023-04-18T21:28:27.181Z,102635.66
2023-04-18T21:30:48.827Z,102641.50
2023-04-18T21:33:10.795Z,102627.44
2023-04-18T21:35:32.543Z,102635.50
2023-04-18T21:37:54.217Z,102641.31
2023-04-18T21:40:15.966Z,102632.50
2023-04-18T21:42:37.689Z,102637.50
2023-04-18T21:44:59.303Z,102637.50
2023-04-18T21:47:21.060Z,102638.59
2023-04-18T21:49:43.017Z,102634.22
2023-04-18T21:52:04.938Z,102633.66
2023-04-18T21:54:26.547Z,102636.72
2023-04-18T21:56:48.248Z,102635.34
2023-04-18T21:59:10.079Z,102634.28
2023-04-18T22:01:34.337Z,102630.47
2023-04-18T22:03:56.375Z,102628.81
2023-04-18T22:06:18.211Z,102633.25
2023-04-18T22:08:39.884Z,102631.56
2023-04-18T22:11:01.870Z,102639.91
2023-04-18T22:13:25.683Z,102639.34
2023-04-18T22:15:47.557Z,102639.41
2023-04-18T22:18:09.292Z,102636.97
2023-04-18T22:20:31.615Z,102641.94
2023-04-18T22:22:56.432Z,102641.41
2023-04-18T22:25:18.097Z,102650.84
2023-04-18T22:27:40.150Z,102648.94
2023-04-18T22:30:01.839Z,102642.34
2023-04-18T22:32:23.839Z,102645.69
2023-04-18T22:34:45.697Z,102641.00
2023-04-18T22:37:07.425Z,102638.53
2023-04-18T22:39:31.092Z,102637.44
2023-04-18T22:41:52.825Z,102644.56
2023-04-18T22:44:14.589Z,102635.72
2023-04-18T22:46:38.558Z,102639.00
2023-04-18T22:49:00.661Z,102641.50
2023-04-18T22:51:23.567Z,102647.81
2023-04-18T22:53:45.287Z,102648.59
2023-04-18T22:56:07.413Z,102647.19
2023-04-18T22:58:29.758Z,102644.69
2023-04-18T23:00:51.425Z,102648.53
2023-04-18T23:03:13.340Z,102643.78
2023-04-18T23:05:35.403Z,102641.25
2023-04-18T23:07:59.023Z,102640.91
2023-04-18T23:10:23.234Z,102636.47
2023-04-18T23:12:44.913Z,102640.81
2023-04-18T23:15:07.411Z,102646.28
2023-04-18T23:17:29.248Z,102645.72
2023-04-18T23:19:50.937Z,102646.22
2023-04-18T23:22:12.685Z,102645.66
2023-04-18T23:24:34.388Z,102640.97
2023-04-18T23:26:57.035Z,102640.38
2023-04-18T23:29:18.721Z,102637.88
2023-04-18T23:31:40.834Z,102637.81
2023-04-18T23:34:02.708Z,102636.69
2023-04-18T23:36:24.797Z,102640.78
2023-04-18T23:38:46.821Z,102638.28
2023-04-18T23:41:09.492Z,102641.03
2023-04-18T23:43:31.280Z,102638.28
2023-04-18T23:45:53.009Z,102646.78
2023-04-18T23:48:14.696Z,102640.97
2023-04-18T23:50:36.668Z,102633.22
2023-04-18T23:52:58.336Z,102630.47
2023-04-18T23:55:20.161Z,102634.88
2023-04-18T23:57:41.786Z,102639.56
